sensor_id;sensor_type;location;lat;lon;timestamp;pressure;altitude;pressure_sealevel;temperature;humidity
64200;BME280;50516;52.272;5.136;2022-12-10T00:00:22;100793.94;;;1.67;80.95
64200;BME280;50516;52.272;5.136;2022-12-10T00:02:47;100811.63;;;1.62;80.94
64200;BME280;50516;52.272;5.136;2022-12-10T00:05:12;100805.34;;;1.69;81.33
64200;BME280;50516;52.272;5.136;2022-12-10T00:07:38;100809.13;;;1.61;81.30
64200;BME280;50516;52.272;5.136;2022-12-10T00:10:03;100808.91;;;1.62;80.51
64200;BME280;50516;52.272;5.136;2022-12-10T00:12:29;100814.97;;;1.58;80.65
64200;BME280;50516;52.272;5.136;2022-12-10T00:14:54;100815.00;;;1.51;81.11
64200;BME280;50516;52.272;5.136;2022-12-10T00:17:20;100817.34;;;1.34;82.35
64200;BME280;50516;52.272;5.136;2022-12-10T00:19:45;100818.97;;;1.42;81.56
64200;BME280;50516;52.272;5.136;2022-12-10T00:22:10;100817.09;;;1.49;80.88
64200;BME280;50516;52.272;5.136;2022-12-10T00:24:36;100826.44;;;1.46;80.29
64200;BME280;50516;52.272;5.136;2022-12-10T00:27:01;100823.53;;;1.48;80.62
64200;BME280;50516;52.272;5.136;2022-12-10T00:29:27;100820.41;;;1.51;80.70
64200;BME280;50516;52.272;5.136;2022-12-10T00:31:52;100819.97;;;1.54;80.19
64200;BME280;50516;52.272;5.136;2022-12-10T00:34:17;100805.66;;;1.47;80.59
64200;BME280;50516;52.272;5.136;2022-12-10T00:36:45;100818.34;;;1.46;80.54
64200;BME280;50516;52.272;5.136;2022-12-10T00:39:16;100812.31;;;1.44;80.24
64200;BME280;50516;52.272;5.136;2022-12-10T00:41:42;100811.31;;;1.25;81.40
64200;BME280;50516;52.272;5.136;2022-12-10T00:44:08;100817.13;;;1.36;81.76
64200;BME280;50516;52.272;5.136;2022-12-10T00:46:34;100811.44;;;1.57;81.02
64200;BME280;50516;52.272;5.136;2022-12-10T00:48:59;100813.25;;;1.70;81.73
64200;BME280;50516;52.272;5.136;2022-12-10T00:51:26;100812.41;;;1.76;80.93
64200;BME280;50516;52.272;5.136;2022-12-10T00:53:53;100818.50;;;1.65;81.25
64200;BME280;50516;52.272;5.136;2022-12-10T00:56:22;100821.84;;;1.60;82.01
64200;BME280;50516;52.272;5.136;2022-12-10T00:58:48;100824.31;;;1.69;81.75
64200;BME280;50516;52.272;5.136;2022-12-10T01:01:32;100817.03;;;1.62;82.67
64200;BME280;50516;52.272;5.136;2022-12-10T01:04:20;100822.41;;;1.69;82.95
64200;BME280;50516;52.272;5.136;2022-12-10T01:06:50;100820.13;;;1.73;82.50
64200;BME280;50516;52.272;5.136;2022-12-10T01:09:22;100818.06;;;1.61;83.41
64200;BME280;50516;52.272;5.136;2022-12-10T01:11:49;100815.78;;;1.65;83.26
64200;BME280;50516;52.272;5.136;2022-12-10T01:14:22;100823.94;;;1.58;83.88
64200;BME280;50516;52.272;5.136;2022-12-10T01:16:49;100834.09;;;1.70;83.59
64200;BME280;50516;52.272;5.136;2022-12-10T01:19:15;100837.22;;;1.73;84.04
64200;BME280;50516;52.272;5.136;2022-12-10T01:21:40;100837.88;;;1.62;84.01
64200;BME280;50516;52.272;5.136;2022-12-10T01:24:06;100849.28;;;1.71;84.57
64200;BME280;50516;52.272;5.136;2022-12-10T01:26:33;100845.13;;;1.75;84.32
64200;BME280;50516;52.272;5.136;2022-12-10T01:28:59;100841.56;;;1.74;84.18
64200;BME280;50516;52.272;5.136;2022-12-10T01:31:33;100832.47;;;1.62;84.72
64200;BME280;50516;52.272;5.136;2022-12-10T01:33:59;100850.53;;;1.61;84.96
64200;BME280;50516;52.272;5.136;2022-12-10T01:36:30;100859.72;;;1.67;84.67
64200;BME280;50516;52.272;5.136;2022-12-10T01:38:57;100856.84;;;1.55;86.16
64200;BME280;50516;52.272;5.136;2022-12-10T01:41:37;100860.75;;;1.66;85.39
64200;BME280;50516;52.272;5.136;2022-12-10T01:46:39;100863.72;;;1.44;85.55
64200;BME280;50516;52.272;5.136;2022-12-10T01:49:08;100861.00;;;1.51;86.10
64200;BME280;50516;52.272;5.136;2022-12-10T01:51:36;100867.47;;;1.43;86.35
64200;BME280;50516;52.272;5.136;2022-12-10T01:54:03;100877.03;;;1.46;86.33
64200;BME280;50516;52.272;5.136;2022-12-10T01:56:31;100870.56;;;1.54;86.29
64200;BME280;50516;52.272;5.136;2022-12-10T01:59:00;100872.88;;;1.57;85.46
64200;BME280;50516;52.272;5.136;2022-12-10T02:01:32;100869.28;;;1.70;85.68
64200;BME280;50516;52.272;5.136;2022-12-10T02:13:08;100864.50;;;1.72;85.49
64200;BME280;50516;52.272;5.136;2022-12-10T02:15:43;100868.84;;;1.79;85.79
64200;BME280;50516;52.272;5.136;2022-12-10T02:18:16;100868.19;;;1.77;85.93
64200;BME280;50516;52.272;5.136;2022-12-10T02:20:48;100868.16;;;1.84;85.69
64200;BME280;50516;52.272;5.136;2022-12-10T02:25:59;100866.34;;;1.78;85.78
64200;BME280;50516;52.272;5.136;2022-12-10T02:28:46;100866.94;;;1.80;85.54
64200;BME280;50516;52.272;5.136;2022-12-10T02:31:18;100864.84;;;1.82;84.99
64200;BME280;50516;52.272;5.136;2022-12-10T02:33:50;100860.47;;;1.88;85.70
64200;BME280;50516;52.272;5.136;2022-12-10T02:36:18;100866.09;;;1.86;86.24
64200;BME280;50516;52.272;5.136;2022-12-10T02:38:44;100857.75;;;1.94;85.67
64200;BME280;50516;52.272;5.136;2022-12-10T02:41:20;100872.31;;;1.93;85.20
64200;BME280;50516;52.272;5.136;2022-12-10T02:43:51;100856.50;;;1.90;85.70
64200;BME280;50516;52.272;5.136;2022-12-10T02:46:18;100866.53;;;1.83;85.77
64200;BME280;50516;52.272;5.136;2022-12-10T02:48:46;100864.00;;;1.88;85.81
64200;BME280;50516;52.272;5.136;2022-12-10T02:51:12;100868.97;;;1.98;85.42
64200;BME280;50516;52.272;5.136;2022-12-10T02:53:42;100875.41;;;2.04;85.56
64200;BME280;50516;52.272;5.136;2022-12-10T02:56:42;100873.50;;;2.11;85.05
64200;BME280;50516;52.272;5.136;2022-12-10T02:59:33;100872.88;;;2.09;85.21
64200;BME280;50516;52.272;5.136;2022-12-10T03:02:27;100871.81;;;2.10;85.33
64200;BME280;50516;52.272;5.136;2022-12-10T03:05:06;100872.69;;;2.10;85.01
64200;BME280;50516;52.272;5.136;2022-12-10T03:07:38;100871.00;;;2.09;85.74
64200;BME280;50516;52.272;5.136;2022-12-10T03:12:41;100882.25;;;2.06;86.21
64200;BME280;50516;52.272;5.136;2022-12-10T03:15:12;100878.75;;;1.99;85.63
64200;BME280;50516;52.272;5.136;2022-12-10T03:17:40;100871.63;;;2.05;86.16
64200;BME280;50516;52.272;5.136;2022-12-10T03:20:13;100866.44;;;2.03;85.61
64200;BME280;50516;52.272;5.136;2022-12-10T03:22:46;100861.06;;;1.96;86.05
64200;BME280;50516;52.272;5.136;2022-12-10T03:25:17;100866.94;;;1.87;85.85
64200;BME280;50516;52.272;5.136;2022-12-10T03:27:45;100858.56;;;1.95;85.63
64200;BME280;50516;52.272;5.136;2022-12-10T03:30:15;100859.00;;;1.85;86.06
64200;BME280;50516;52.272;5.136;2022-12-10T03:32:42;100855.69;;;1.83;86.78
64200;BME280;50516;52.272;5.136;2022-12-10T03:35:09;100848.16;;;1.92;86.74
64200;BME280;50516;52.272;5.136;2022-12-10T03:37:35;100852.75;;;1.91;86.12
64200;BME280;50516;52.272;5.136;2022-12-10T03:40:02;100847.69;;;2.01;86.04
64200;BME280;50516;52.272;5.136;2022-12-10T03:42:28;100845.16;;;2.07;86.41
64200;BME280;50516;52.272;5.136;2022-12-10T03:44:54;100836.88;;;2.01;85.83
64200;BME280;50516;52.272;5.136;2022-12-10T03:47:19;100841.91;;;1.91;85.89
64200;BME280;50516;52.272;5.136;2022-12-10T03:49:45;100842.38;;;1.81;86.55
64200;BME280;50516;52.272;5.136;2022-12-10T03:52:12;100837.50;;;1.97;86.47
64200;BME280;50516;52.272;5.136;2022-12-10T03:54:38;100844.38;;;1.99;86.03
64200;BME280;50516;52.272;5.136;2022-12-10T03:57:03;100847.25;;;2.05;85.88
64200;BME280;50516;52.272;5.136;2022-12-10T03:59:29;100840.84;;;1.99;85.98
64200;BME280;50516;52.272;5.136;2022-12-10T04:01:54;100853.97;;;1.95;86.27
64200;BME280;50516;52.272;5.136;2022-12-10T04:04:20;100849.81;;;1.93;86.27
64200;BME280;50516;52.272;5.136;2022-12-10T04:06:45;100850.06;;;1.85;86.25
64200;BME280;50516;52.272;5.136;2022-12-10T04:09:13;100854.41;;;1.86;86.48
64200;BME280;50516;52.272;5.136;2022-12-10T04:11:43;100851.09;;;1.83;85.91
64200;BME280;50516;52.272;5.136;2022-12-10T04:14:12;100855.47;;;1.91;86.30
64200;BME280;50516;52.272;5.136;2022-12-10T04:16:57;100856.25;;;1.98;86.64
64200;BME280;50516;52.272;5.136;2022-12-10T04:19:22;100863.56;;;1.91;86.04
64200;BME280;50516;52.272;5.136;2022-12-10T04:21:48;100864.00;;;1.88;86.09
64200;BME280;50516;52.272;5.136;2022-12-10T04:24:34;100861.72;;;1.85;86.66
64200;BME280;50516;52.272;5.136;2022-12-10T04:27:32;100866.59;;;1.70;86.28
64200;BME280;50516;52.272;5.136;2022-12-10T04:30:01;100865.16;;;1.54;86.75
64200;BME280;50516;52.272;5.136;2022-12-10T04:32:27;100864.94;;;1.62;87.45
64200;BME280;50516;52.272;5.136;2022-12-10T04:34:54;100857.03;;;1.60;87.37
64200;BME280;50516;52.272;5.136;2022-12-10T04:37:20;100869.06;;;1.64;87.42
64200;BME280;50516;52.272;5.136;2022-12-10T04:39:45;100860.53;;;1.68;86.99
64200;BME280;50516;52.272;5.136;2022-12-10T04:42:11;100863.66;;;1.71;86.69
64200;BME280;50516;52.272;5.136;2022-12-10T04:44:40;100863.00;;;1.76;87.01
64200;BME280;50516;52.272;5.136;2022-12-10T04:47:08;100857.81;;;1.68;86.83
64200;BME280;50516;52.272;5.136;2022-12-10T04:49:34;100866.59;;;1.70;87.12
64200;BME280;50516;52.272;5.136;2022-12-10T04:51:59;100866.34;;;1.78;86.32
64200;BME280;50516;52.272;5.136;2022-12-10T04:54:25;100864.81;;;1.89;86.87
64200;BME280;50516;52.272;5.136;2022-12-10T04:56:50;100865.03;;;1.87;86.01
64200;BME280;50516;52.272;5.136;2022-12-10T04:59:16;100860.50;;;1.81;85.96
64200;BME280;50516;52.272;5.136;2022-12-10T05:01:42;100867.41;;;1.70;87.04
64200;BME280;50516;52.272;5.136;2022-12-10T05:04:11;100866.59;;;1.56;86.89
64200;BME280;50516;52.272;5.136;2022-12-10T05:06:38;100861.63;;;1.60;87.60
64200;BME280;50516;52.272;5.136;2022-12-10T05:09:04;100875.72;;;1.69;87.37
64200;BME280;50516;52.272;5.136;2022-12-10T05:11:31;100867.00;;;1.67;87.17
64200;BME280;50516;52.272;5.136;2022-12-10T05:13:57;100872.59;;;1.72;87.10
64200;BME280;50516;52.272;5.136;2022-12-10T05:16:26;100869.50;;;1.68;87.18
64200;BME280;50516;52.272;5.136;2022-12-10T05:18:53;100864.50;;;1.72;86.70
64200;BME280;50516;52.272;5.136;2022-12-10T05:21:21;100875.72;;;1.69;86.87
64200;BME280;50516;52.272;5.136;2022-12-10T05:23:52;100878.03;;;1.72;86.57
64200;BME280;50516;52.272;5.136;2022-12-10T05:26:24;100869.94;;;1.65;87.07
64200;BME280;50516;52.272;5.136;2022-12-10T05:28:54;100879.47;;;1.68;86.71
64200;BME280;50516;52.272;5.136;2022-12-10T05:31:25;100875.34;;;1.58;86.52
64200;BME280;50516;52.272;5.136;2022-12-10T05:33:52;100869.31;;;1.56;86.20
64200;BME280;50516;52.272;5.136;2022-12-10T05:36:24;100863.03;;;1.62;86.83
64200;BME280;50516;52.272;5.136;2022-12-10T05:38:51;100862.03;;;1.50;87.30
64200;BME280;50516;52.272;5.136;2022-12-10T05:41:19;100877.44;;;1.50;86.96
64200;BME280;50516;52.272;5.136;2022-12-10T05:43:46;100881.19;;;1.55;86.93
64200;BME280;50516;52.272;5.136;2022-12-10T05:46:14;100873.72;;;1.44;87.14
64200;BME280;50516;52.272;5.136;2022-12-10T05:48:40;100863.69;;;1.51;86.91
64200;BME280;50516;52.272;5.136;2022-12-10T05:51:11;100867.25;;;1.58;86.52
64200;BME280;50516;52.272;5.136;2022-12-10T05:53:37;100877.84;;;1.53;86.53
64200;BME280;50516;52.272;5.136;2022-12-10T05:56:08;100865.56;;;1.57;86.23
64200;BME280;50516;52.272;5.136;2022-12-10T05:58:34;100873.44;;;1.66;86.54
64200;BME280;50516;52.272;5.136;2022-12-10T06:01:00;100876.16;;;1.66;86.47
64200;BME280;50516;52.272;5.136;2022-12-10T06:03:28;100885.34;;;1.51;86.04
64200;BME280;50516;52.272;5.136;2022-12-10T06:05:54;100875.75;;;1.62;86.66
64200;BME280;50516;52.272;5.136;2022-12-10T06:08:19;100875.34;;;1.65;85.80
64200;BME280;50516;52.272;5.136;2022-12-10T06:10:45;100873.25;;;1.60;85.86
64200;BME280;50516;52.272;5.136;2022-12-10T06:13:13;100882.63;;;1.71;85.87
64200;BME280;50516;52.272;5.136;2022-12-10T06:15:42;100875.72;;;1.69;85.51
64200;BME280;50516;52.272;5.136;2022-12-10T06:18:08;100882.00;;;1.62;85.59
64200;BME280;50516;52.272;5.136;2022-12-10T06:20:42;100888.66;;;1.67;85.78
64200;BME280;50516;52.272;5.136;2022-12-10T06:23:07;100889.28;;;1.69;85.47
64200;BME280;50516;52.272;5.136;2022-12-10T06:25:33;100885.94;;;1.67;85.51
64200;BME280;50516;52.272;5.136;2022-12-10T06:27:58;100890.50;;;1.73;86.16
64200;BME280;50516;52.272;5.136;2022-12-10T06:30:24;100895.06;;;1.79;85.75
64200;BME280;50516;52.272;5.136;2022-12-10T06:32:49;100896.72;;;1.80;85.58
64200;BME280;50516;52.272;5.136;2022-12-10T06:35:15;100893.84;;;1.75;85.22
64200;BME280;50516;52.272;5.136;2022-12-10T06:37:40;100894.25;;;1.72;85.17
64200;BME280;50516;52.272;5.136;2022-12-10T06:40:09;100905.72;;;1.67;85.17
64200;BME280;50516;52.272;5.136;2022-12-10T06:42:34;100908.03;;;1.57;85.18
64200;BME280;50516;52.272;5.136;2022-12-10T06:45:00;100915.75;;;1.60;86.24
64200;BME280;50516;52.272;5.136;2022-12-10T06:47:25;100899.91;;;1.50;86.63
64200;BME280;50516;52.272;5.136;2022-12-10T06:49:51;100914.50;;;1.49;86.94
64200;BME280;50516;52.272;5.136;2022-12-10T06:52:16;100913.06;;;1.40;86.02
64200;BME280;50516;52.272;5.136;2022-12-10T06:54:41;100912.84;;;1.41;86.33
64200;BME280;50516;52.272;5.136;2022-12-10T06:57:07;100908.91;;;1.44;87.03
64200;BME280;50516;52.272;5.136;2022-12-10T06:59:32;100919.47;;;1.59;86.51
64200;BME280;50516;52.272;5.136;2022-12-10T07:01:58;100916.38;;;1.55;86.54
64200;BME280;50516;52.272;5.136;2022-12-10T07:04:23;100923.84;;;1.46;86.34
64200;BME280;50516;52.272;5.136;2022-12-10T07:06:49;100917.00;;;1.51;86.36
64200;BME280;50516;52.272;5.136;2022-12-10T07:09:14;100923.88;;;1.40;86.45
64200;BME280;50516;52.272;5.136;2022-12-10T07:11:41;100920.78;;;1.30;86.90
64200;BME280;50516;52.272;5.136;2022-12-10T07:14:06;100931.16;;;1.19;87.68
64200;BME280;50516;52.272;5.136;2022-12-10T07:16:32;100928.25;;;1.41;87.10
64200;BME280;50516;52.272;5.136;2022-12-10T07:19:00;100931.53;;;1.56;86.07
64200;BME280;50516;52.272;5.136;2022-12-10T07:21:31;100934.91;;;1.58;86.04
64200;BME280;50516;52.272;5.136;2022-12-10T07:23:59;100940.28;;;1.65;85.89
64200;BME280;50516;52.272;5.136;2022-12-10T07:26:28;100940.31;;;1.58;86.29
64200;BME280;50516;52.272;5.136;2022-12-10T07:28:53;100947.16;;;1.68;85.87
64200;BME280;50516;52.272;5.136;2022-12-10T07:31:20;100941.72;;;1.74;85.99
64200;BME280;50516;52.272;5.136;2022-12-10T07:33:46;100941.94;;;1.73;85.77
64200;BME280;50516;52.272;5.136;2022-12-10T07:36:12;100950.03;;;1.73;85.75
64200;BME280;50516;52.272;5.136;2022-12-10T07:38:38;100941.94;;;1.73;85.85
64200;BME280;50516;52.272;5.136;2022-12-10T07:41:08;100951.94;;;1.72;85.82
64200;BME280;50516;52.272;5.136;2022-12-10T07:43:36;100941.28;;;1.77;85.65
64200;BME280;50516;52.272;5.136;2022-12-10T07:46:11;100946.31;;;1.74;85.84
64200;BME280;50516;52.272;5.136;2022-12-10T07:48:38;100945.66;;;1.85;85.18
64200;BME280;50516;52.272;5.136;2022-12-10T07:51:04;100941.91;;;1.86;85.18
64200;BME280;50516;52.272;5.136;2022-12-10T07:53:30;100944.41;;;1.88;85.08
64200;BME280;50516;52.272;5.136;2022-12-10T07:55:55;100950.63;;;1.95;85.32
64200;BME280;50516;52.272;5.136;2022-12-10T07:58:21;100947.34;;;1.86;84.61
64200;BME280;50516;52.272;5.136;2022-12-10T08:00:46;100950.22;;;1.91;85.12
64200;BME280;50516;52.272;5.136;2022-12-10T08:03:11;100948.78;;;1.82;84.85
64200;BME280;50516;52.272;5.136;2022-12-10T08:05:37;100957.75;;;1.89;85.31
64200;BME280;50516;52.272;5.136;2022-12-10T08:08:02;100957.94;;;1.94;85.51
64200;BME280;50516;52.272;5.136;2022-12-10T08:10:28;100962.28;;;1.95;85.38
64200;BME280;50516;52.272;5.136;2022-12-10T08:12:53;100954.44;;;1.74;85.13
64200;BME280;50516;52.272;5.136;2022-12-10T08:15:19;100961.50;;;1.75;85.82
64200;BME280;50516;52.272;5.136;2022-12-10T08:17:44;100956.97;;;1.55;85.06
64200;BME280;50516;52.272;5.136;2022-12-10T08:20:09;100970.69;;;1.60;85.69
64200;BME280;50516;52.272;5.136;2022-12-10T08:22:35;100964.88;;;1.63;85.56
64200;BME280;50516;52.272;5.136;2022-12-10T08:25:01;100965.28;;;1.60;84.83
64200;BME280;50516;52.272;5.136;2022-12-10T08:27:26;100965.03;;;1.75;85.41
64200;BME280;50516;52.272;5.136;2022-12-10T08:29:52;100967.34;;;1.72;85.27
64200;BME280;50516;52.272;5.136;2022-12-10T08:32:17;100966.09;;;1.81;85.03
64200;BME280;50516;52.272;5.136;2022-12-10T08:34:42;100971.06;;;1.84;85.30
64200;BME280;50516;52.272;5.136;2022-12-10T08:37:08;100980.41;;;1.95;84.61
64200;BME280;50516;52.272;5.136;2022-12-10T08:39:33;100995.63;;;2.03;84.58
64200;BME280;50516;52.272;5.136;2022-12-10T08:41:59;100993.16;;;1.81;84.64
64200;BME280;50516;52.272;5.136;2022-12-10T08:44:24;100995.88;;;1.81;85.45
64200;BME280;50516;52.272;5.136;2022-12-10T08:46:49;100998.13;;;1.84;84.60
64200;BME280;50516;52.272;5.136;2022-12-10T08:49:15;101004.81;;;1.88;85.06
64200;BME280;50516;52.272;5.136;2022-12-10T08:51:40;101008.13;;;1.90;84.72
64200;BME280;50516;52.272;5.136;2022-12-10T08:54:05;101007.31;;;1.90;85.33
64200;BME280;50516;52.272;5.136;2022-12-10T08:56:31;101015.66;;;1.68;84.96
64200;BME280;50516;52.272;5.136;2022-12-10T08:58:56;101013.56;;;1.77;85.61
64200;BME280;50516;52.272;5.136;2022-12-10T09:01:22;101012.09;;;1.94;84.51
64200;BME280;50516;52.272;5.136;2022-12-10T09:03:47;101010.19;;;2.01;84.65
64200;BME280;50516;52.272;5.136;2022-12-10T09:06:15;101011.44;;;2.06;84.91
64200;BME280;50516;52.272;5.136;2022-12-10T09:08:41;101014.34;;;2.11;84.69
64200;BME280;50516;52.272;5.136;2022-12-10T09:11:13;101019.53;;;2.19;84.50
64200;BME280;50516;52.272;5.136;2022-12-10T09:13:39;101009.72;;;2.18;83.90
64200;BME280;50516;52.272;5.136;2022-12-10T09:16:05;101016.63;;;2.21;84.59
64200;BME280;50516;52.272;5.136;2022-12-10T09:18:30;101019.28;;;2.27;84.07
64200;BME280;50516;52.272;5.136;2022-12-10T09:21:10;101021.78;;;2.35;83.98
64200;BME280;50516;52.272;5.136;2022-12-10T09:23:35;101020.16;;;2.28;84.30
64200;BME280;50516;52.272;5.136;2022-12-10T09:26:05;101015.97;;;2.25;84.23
64200;BME280;50516;52.272;5.136;2022-12-10T09:28:33;101031.19;;;2.19;84.71
64200;BME280;50516;52.272;5.136;2022-12-10T09:31:00;101023.91;;;2.27;84.33
64200;BME280;50516;52.272;5.136;2022-12-10T09:33:27;101035.16;;;2.24;84.19
64200;BME280;50516;52.272;5.136;2022-12-10T09:35:52;101036.81;;;2.25;84.29
64200;BME280;50516;52.272;5.136;2022-12-10T09:38:18;101034.53;;;2.28;84.49
64200;BME280;50516;52.272;5.136;2022-12-10T09:40:54;101030.75;;;2.29;84.11
64200;BME280;50516;52.272;5.136;2022-12-10T09:46:27;101037.03;;;2.30;84.16
64200;BME280;50516;52.272;5.136;2022-12-10T09:51:40;101042.03;;;2.26;83.61
64200;BME280;50516;52.272;5.136;2022-12-10T09:54:21;101036.38;;;2.34;83.50
64200;BME280;50516;52.272;5.136;2022-12-10T09:56:55;101041.16;;;2.32;83.94
64200;BME280;50516;52.272;5.136;2022-12-10T09:59:31;101036.00;;;2.17;84.60
64200;BME280;50516;52.272;5.136;2022-12-10T10:04:45;101045.56;;;2.27;84.55
64200;BME280;50516;52.272;5.136;2022-12-10T10:07:23;101047.66;;;2.31;83.80
64200;BME280;50516;52.272;5.136;2022-12-10T10:09:52;101056.75;;;2.44;83.56
64200;BME280;50516;52.272;5.136;2022-12-10T10:12:20;101043.88;;;2.39;84.01
64200;BME280;50516;52.272;5.136;2022-12-10T10:14:45;101053.06;;;2.31;83.68
64200;BME280;50516;52.272;5.136;2022-12-10T10:17:18;101059.91;;;2.41;83.74
64200;BME280;50516;52.272;5.136;2022-12-10T10:19:47;101048.47;;;2.32;82.87
64200;BME280;50516;52.272;5.136;2022-12-10T10:22:14;101056.19;;;2.28;83.72
64200;BME280;50516;52.272;5.136;2022-12-10T10:24:42;101056.38;;;2.40;84.57
64200;BME280;50516;52.272;5.136;2022-12-10T10:27:25;101052.84;;;2.40;84.21
64200;BME280;50516;52.272;5.136;2022-12-10T10:30:02;101046.97;;;2.49;83.68
64200;BME280;50516;52.272;5.136;2022-12-10T10:35:06;101046.78;;;2.44;83.49
64200;BME280;50516;52.272;5.136;2022-12-10T10:40:00;101045.50;;;2.47;82.76
64200;BME280;50516;52.272;5.136;2022-12-10T10:42:28;101052.56;;;2.54;83.85
64200;BME280;50516;52.272;5.136;2022-12-10T10:44:59;101052.78;;;2.53;83.46
64200;BME280;50516;52.272;5.136;2022-12-10T10:47:33;101061.94;;;2.52;83.55
64200;BME280;50516;52.272;5.136;2022-12-10T10:50:03;101059.28;;;2.38;83.89
64200;BME280;50516;52.272;5.136;2022-12-10T10:52:34;101055.94;;;2.43;83.73
64200;BME280;50516;52.272;5.136;2022-12-10T10:55:00;101053.91;;;2.25;83.67
64200;BME280;50516;52.272;5.136;2022-12-10T10:57:36;101050.88;;;2.53;84.10
64200;BME280;50516;52.272;5.136;2022-12-10T11:00:06;101053.00;;;2.51;83.95
64200;BME280;50516;52.272;5.136;2022-12-10T11:02:37;101053.81;;;2.59;83.44
64200;BME280;50516;52.272;5.136;2022-12-10T11:05:20;101059.44;;;2.57;83.38
64200;BME280;50516;52.272;5.136;2022-12-10T11:08:01;101067.16;;;2.53;83.20
64200;BME280;50516;52.272;5.136;2022-12-10T11:10:37;101068.63;;;2.56;82.98
64200;BME280;50516;52.272;5.136;2022-12-10T11:13:22;101056.31;;;2.60;83.07
64200;BME280;50516;52.272;5.136;2022-12-10T11:15:56;101064.25;;;2.48;83.70
64200;BME280;50516;52.272;5.136;2022-12-10T11:20:59;101058.88;;;2.42;83.06
64200;BME280;50516;52.272;5.136;2022-12-10T11:23:43;101053.38;;;2.55;83.60
64200;BME280;50516;52.272;5.136;2022-12-10T11:26:16;101062.34;;;2.62;83.49
64200;BME280;50516;52.272;5.136;2022-12-10T11:34:19;101048.22;;;2.40;83.94
64200;BME280;50516;52.272;5.136;2022-12-10T11:36:50;101045.91;;;2.57;83.88
64200;BME280;50516;52.272;5.136;2022-12-10T11:42:27;101032.13;;;2.52;83.42
64200;BME280;50516;52.272;5.136;2022-12-10T11:45:07;101037.38;;;2.47;83.94
64200;BME280;50516;52.272;5.136;2022-12-10T11:56:00;101051.34;;;2.50;83.21
64200;BME280;50516;52.272;5.136;2022-12-10T12:09:28;101050.00;;;2.66;83.06
64200;BME280;50516;52.272;5.136;2022-12-10T12:14:36;101054.28;;;2.35;83.84
64200;BME280;50516;52.272;5.136;2022-12-10T12:17:30;101053.81;;;2.52;84.24
64200;BME280;50516;52.272;5.136;2022-12-10T12:20:02;101050.47;;;2.56;83.72
64200;BME280;50516;52.272;5.136;2022-12-10T12:22:33;101046.47;;;2.66;83.60
64200;BME280;50516;52.272;5.136;2022-12-10T12:25:23;101053.13;;;2.77;83.24
64200;BME280;50516;52.272;5.136;2022-12-10T12:27:58;101049.75;;;2.81;82.93
64200;BME280;50516;52.272;5.136;2022-12-10T12:30:25;101037.66;;;2.77;82.97
64200;BME280;50516;52.272;5.136;2022-12-10T12:33:09;101039.94;;;2.80;82.49
64200;BME280;50516;52.272;5.136;2022-12-10T12:35:48;101051.53;;;2.55;83.47
64200;BME280;50516;52.272;5.136;2022-12-10T12:40:53;101036.84;;;2.77;83.07
64200;BME280;50516;52.272;5.136;2022-12-10T12:43:32;101034.00;;;2.58;83.53
64200;BME280;50516;52.272;5.136;2022-12-10T12:46:11;101042.56;;;2.62;83.85
64200;BME280;50516;52.272;5.136;2022-12-10T12:48:57;101042.47;;;2.75;83.81
64200;BME280;50516;52.272;5.136;2022-12-10T12:51:45;101038.38;;;2.59;83.74
64200;BME280;50516;52.272;5.136;2022-12-10T12:54:12;101039.84;;;2.62;84.30
64200;BME280;50516;52.272;5.136;2022-12-10T13:01:57;101040.84;;;2.67;84.06
64200;BME280;50516;52.272;5.136;2022-12-10T13:04:25;101037.94;;;2.62;83.76
64200;BME280;50516;52.272;5.136;2022-12-10T13:07:26;101031.25;;;2.71;83.76
64200;BME280;50516;52.272;5.136;2022-12-10T13:10:10;101044.59;;;2.73;83.66
64200;BME280;50516;52.272;5.136;2022-12-10T13:13:06;101037.53;;;2.65;83.94
64200;BME280;50516;52.272;5.136;2022-12-10T13:28:22;101047.84;;;2.30;83.87
64200;BME280;50516;52.272;5.136;2022-12-10T13:36:27;101058.66;;;2.43;84.15
64200;BME280;50516;52.272;5.136;2022-12-10T13:39:20;101076.13;;;2.54;83.59
64200;BME280;50516;52.272;5.136;2022-12-10T13:47:48;101072.19;;;2.43;84.05
64200;BME280;50516;52.272;5.136;2022-12-10T13:53:08;101068.47;;;2.44;84.56
64200;BME280;50516;52.272;5.136;2022-12-10T13:59:49;101067.59;;;2.44;84.56
64200;BME280;50516;52.272;5.136;2022-12-10T14:02:32;101075.97;;;2.29;83.46
64200;BME280;50516;52.272;5.136;2022-12-10T14:07:47;101101.63;;;2.40;84.91
64200;BME280;50516;52.272;5.136;2022-12-10T14:10:16;101099.31;;;2.43;84.29
64200;BME280;50516;52.272;5.136;2022-12-10T14:12:44;101099.94;;;2.38;84.47
64200;BME280;50516;52.272;5.136;2022-12-10T14:15:23;101112.25;;;2.34;84.71
64200;BME280;50516;52.272;5.136;2022-12-10T14:17:59;101110.19;;;2.10;85.00
64200;BME280;50516;52.272;5.136;2022-12-10T14:20:25;101097.25;;;2.25;85.13
64200;BME280;50516;52.272;5.136;2022-12-10T14:22:53;101106.84;;;2.08;84.61
64200;BME280;50516;52.272;5.136;2022-12-10T14:25:42;101107.88;;;2.07;84.67
64200;BME280;50516;52.272;5.136;2022-12-10T14:28:13;101107.69;;;2.15;85.89
64200;BME280;50516;52.272;5.136;2022-12-10T14:30:43;101097.44;;;2.37;85.05
64200;BME280;50516;52.272;5.136;2022-12-10T14:33:12;101095.38;;;2.39;84.60
64200;BME280;50516;52.272;5.136;2022-12-10T14:35:41;101091.63;;;2.33;84.45
64200;BME280;50516;52.272;5.136;2022-12-10T14:38:27;101095.34;;;2.32;84.84
64200;BME280;50516;52.272;5.136;2022-12-10T14:40:55;101110.78;;;2.38;84.55
64200;BME280;50516;52.272;5.136;2022-12-10T14:43:23;101107.06;;;2.13;84.82
64200;BME280;50516;52.272;5.136;2022-12-10T14:45:53;101108.53;;;2.15;85.44
64200;BME280;50516;52.272;5.136;2022-12-10T14:48:23;101098.72;;;2.34;85.01
64200;BME280;50516;52.272;5.136;2022-12-10T14:50:49;101095.16;;;2.34;84.66
64200;BME280;50516;52.272;5.136;2022-12-10T14:53:26;101084.50;;;2.32;85.42
64200;BME280;50516;52.272;5.136;2022-12-10T14:58:57;101100.53;;;2.41;85.21
64200;BME280;50516;52.272;5.136;2022-12-10T15:01:29;101096.59;;;2.43;85.18